Time;durP1;ratioP1;P1;durP2;ratioP2;P2;SDS_P1;SDS_P2;PMS_P1;PMS_P2;Temp;Humidity;BMP_temperature;BMP_pressure;BME280_temperature;BME280_humidity;BME280_pressure;Samples;Min_cycle;Max_cycle;Signal;HPM_P1;HPM_P2
2023/05/17 00:01:07;;;;;;;0.10;0.10;;;;;;;12.03;61.19;102624.63;5046079;28;20116;-82
2023/05/17 00:03:33;;;;;;;0.10;0.10;;;;;;;12.05;61.15;102618.44;5050221;28;20291;-81
2023/05/17 00:05:59;;;;;;;0.10;0.10;;;;;;;12.08;61.07;102622.88;5046049;28;20045;-81
2023/05/17 00:08:26;;;;;;;0.10;0.10;;;;;;;12.09;61.38;102620.22;5049767;28;20024;-81
2023/05/17 00:10:52;;;;;;;0.10;0.10;;;;;;;12.13;61.40;102610.47;5050410;28;20025;-80
2023/05/17 00:13:18;;;;;;;0.00;0.00;;;;;;;12.16;61.16;102607.81;5052097;28;20057;-79
2023/05/17 00:15:45;;;;;;;0.10;0.10;;;;;;;12.20;60.44;102611.38;5038911;28;20041;-80
2023/05/17 00:18:11;;;;;;;0.10;0.10;;;;;;;12.22;60.73;102614.94;5052567;28;20025;-82
2023/05/17 00:20:37;;;;;;;0.10;0.10;;;;;;;12.22;60.96;102621.13;5052631;28;20044;-79
2023/05/17 00:23:03;;;;;;;0.10;0.10;;;;;;;12.23;61.07;102617.56;5060846;28;20017;-81
2023/05/17 00:25:29;;;;;;;0.20;0.20;;;;;;;12.24;61.57;102619.34;5053816;28;20106;-81
2023/05/17 00:27:55;;;;;;;0.10;0.10;;;;;;;12.26;61.17;102630.88;5058775;28;20047;-79
2023/05/17 00:30:22;;;;;;;0.10;0.10;;;;;;;12.27;61.38;102627.34;5047910;28;20029;-80
2023/05/17 00:32:48;;;;;;;0.05;0.05;;;;;;;12.29;61.31;102630.88;5054530;28;20380;-80
2023/05/17 00:35:14;;;;;;;0.10;0.10;;;;;;;12.32;60.77;102629.13;5052536;28;20029;-81
2023/05/17 00:37:42;;;;;;;0.10;0.10;;;;;;;12.30;60.80;102624.69;5049424;28;20063;-82
2023/05/17 00:40:09;;;;;;;0.98;0.93;;;;;;;12.30;60.62;102621.16;5055555;28;20029;-82
2023/05/17 00:42:35;;;;;;;0.10;0.10;;;;;;;12.31;60.80;102609.59;5064658;28;20112;-80
2023/05/17 00:45:01;;;;;;;0.08;0.08;;;;;;;12.31;61.35;102628.22;5060217;28;20025;-80
2023/05/17 00:47:27;;;;;;;0.10;0.10;;;;;;;12.32;61.03;102621.16;5061455;28;20025;-82
2023/05/17 00:49:54;;;;;;;0.10;0.10;;;;;;;12.34;61.12;102622.03;5067150;28;20032;-82
2023/05/17 00:52:20;;;;;;;0.10;0.10;;;;;;;12.35;61.39;102623.78;5060727;28;20070;-80
2023/05/17 00:54:46;;;;;;;1.60;1.50;;;;;;;12.34;62.17;102622.03;5058824;28;20033;-82
2023/05/17 00:57:13;;;;;;;0.10;0.10;;;;;;;12.36;61.16;102625.56;5053326;28;20041;-82
2023/05/17 00:59:40;;;;;;;0.10;0.10;;;;;;;12.39;61.39;102628.25;5061180;28;20033;-82
2023/05/17 01:02:06;;;;;;;0.10;0.10;;;;;;;12.38;61.65;102630.00;5050878;28;20078;-82
2023/05/17 01:04:33;;;;;;;0.10;0.10;;;;;;;12.40;61.06;102620.25;5051453;28;20064;-82
2023/05/17 01:06:59;;;;;;;0.32;0.32;;;;;;;12.41;61.77;102621.13;5055513;28;20046;-80
2023/05/17 01:09:25;;;;;;;2.03;0.63;;;;;;;12.43;61.47;102624.69;5053232;28;20406;-81
2023/05/17 01:14:54;;;;;;;0.10;0.10;;;;;;;12.46;61.30;102630.00;5119921;27;20380;-82
2023/05/17 01:17:34;;;;;;;0.15;0.15;;;;;;;12.45;62.13;102620.28;5108064;27;20044;-83
2023/05/17 01:22:57;;;;;;;0.20;0.20;;;;;;;12.48;61.84;102617.59;5108500;27;1175748;-81
2023/05/17 01:28:03;;;;;;;0.10;0.10;;;;;;;12.48;61.83;102617.59;5105988;27;20369;-80
2023/05/17 01:30:31;;;;;;;0.10;0.10;;;;;;;12.50;61.62;102604.31;5089812;28;20063;-80
2023/05/17 01:32:59;;;;;;;0.00;0.00;;;;;;;12.53;62.01;102602.53;5096186;28;20024;-80
2023/05/17 01:35:25;;;;;;;0.10;0.10;;;;;;;12.55;61.75;102611.41;5087049;28;20521;-80
2023/05/17 01:37:53;;;;;;;0.00;0.00;;;;;;;12.58;61.66;102614.06;5095895;28;20033;-80
2023/05/17 01:40:19;;;;;;;0.10;0.10;;;;;;;12.60;61.73;102612.28;5085812;28;20066;-80
2023/05/17 01:42:51;;;;;;;0.10;0.10;;;;;;;12.64;61.73;102614.97;5093542;28;20078;-81
2023/05/17 01:45:30;;;;;;;0.10;0.10;;;;;;;12.64;61.43;102621.16;5080820;28;20044;-80
2023/05/17 01:48:22;;;;;;;0.47;0.47;;;;;;;12.70;61.83;102617.63;5085379;28;20124;-82
2023/05/17 01:50:51;;;;;;;0.10;0.10;;;;;;;12.61;61.82;102618.47;5094932;28;20024;-83
2023/05/17 01:53:25;;;;;;;0.10;0.10;;;;;;;12.60;61.59;102628.25;5082006;28;20024;-83
2023/05/17 01:55:56;;;;;;;0.10;0.10;;;;;;;12.58;61.90;102616.72;5082997;28;20507;-81
2023/05/17 01:58:25;;;;;;;0.03;0.03;;;;;;;12.55;62.22;102615.84;5083669;28;20398;-79
2023/05/17 02:00:55;;;;;;;0.10;0.10;;;;;;;12.54;62.21;102617.59;5088996;28;20025;-83
2023/05/17 02:03:21;;;;;;;0.10;0.10;;;;;;;12.51;62.57;102607.00;5078741;28;20060;-82
2023/05/17 02:05:47;;;;;;;0.10;0.10;;;;;;;12.50;62.51;102613.19;5074722;28;20537;-82
2023/05/17 02:08:14;;;;;;;0.10;0.10;;;;;;;12.49;62.67;102613.19;5084246;28;20115;-82
2023/05/17 02:10:40;;;;;;;0.10;0.10;;;;;;;12.49;62.14;102614.06;5076486;28;20020;-81
2023/05/17 02:13:06;;;;;;;0.10;0.10;;;;;;;12.48;62.14;102612.28;5081019;28;20040;-82
2023/05/17 02:15:32;;;;;;;0.10;0.10;;;;;;;12.46;62.26;102609.63;5077062;28;20028;-80
2023/05/17 02:17:59;;;;;;;0.10;0.10;;;;;;;12.48;62.48;102614.94;5073825;28;20020;-81
2023/05/17 02:20:25;;;;;;;0.10;0.10;;;;;;;12.49;62.82;102614.06;5083040;28;20024;-81
2023/05/17 02:22:51;;;;;;;0.40;0.40;;;;;;;12.53;63.69;102623.81;5082730;28;20024;-82
2023/05/17 02:25:17;;;;;;;0.10;0.10;;;;;;;12.57;62.21;102607.00;5084900;28;20099;-80
2023/05/17 02:27:43;;;;;;;0.00;0.00;;;;;;;12.62;61.71;102615.84;5086240;28;20036;-82
2023/05/17 02:30:10;;;;;;;0.10;0.10;;;;;;;12.65;62.39;102617.63;5075859;28;20032;-82
2023/05/17 02:32:37;;;;;;;0.10;0.10;;;;;;;12.69;62.64;102621.16;5077752;28;20032;-79
2023/05/17 02:35:04;;;;;;;0.10;0.10;;;;;;;12.69;62.55;102615.84;5085035;28;20043;-82
2023/05/17 02:37:30;;;;;;;0.10;0.10;;;;;;;12.71;62.89;102617.63;5084767;28;20020;-82
2023/05/17 02:39:56;;;;;;;0.50;0.50;;;;;;;12.74;62.39;102616.72;5063337;28;20029;-82
2023/05/17 02:42:22;;;;;;;0.17;0.17;;;;;;;12.76;62.38;102617.59;5064371;28;20477;-82
2023/05/17 02:44:51;;;;;;;0.10;0.10;;;;;;;12.76;62.69;102618.50;5060932;28;20037;-82
2023/05/17 02:47:19;;;;;;;0.30;0.30;;;;;;;12.78;63.03;102623.81;5067772;28;20031;-82
2023/05/17 02:49:46;;;;;;;0.55;0.40;;;;;;;12.84;62.20;102625.59;5062203;28;20029;-81
2023/05/17 02:52:14;;;;;;;0.10;0.10;;;;;;;12.84;62.69;102625.59;5065882;28;20092;-81
2023/05/17 02:54:42;;;;;;;0.10;0.10;;;;;;;12.86;62.62;102635.34;5058801;28;20029;-82
2023/05/17 02:57:09;;;;;;;0.10;0.10;;;;;;;12.85;62.53;102627.38;5064173;28;20017;-82
2023/05/17 02:59:35;;;;;;;0.10;0.10;;;;;;;12.75;62.39;102637.13;5067966;28;20032;-81
2023/05/17 03:02:02;;;;;;;0.10;0.10;;;;;;;12.73;62.50;102634.44;5064653;28;20029;-82
2023/05/17 03:04:28;;;;;;;0.10;0.10;;;;;;;12.74;62.61;102630.03;5073167;28;20091;-82
2023/05/17 03:06:54;;;;;;;0.10;0.10;;;;;;;12.74;62.50;102638.00;5065178;28;20028;-81
2023/05/17 03:09:21;;;;;;;0.10;0.10;;;;;;;12.70;62.75;102633.59;5061238;28;20067;-82
2023/05/17 03:11:47;;;;;;;0.10;0.10;;;;;;;12.66;62.94;102642.44;5061744;28;20032;-82
2023/05/17 03:14:14;;;;;;;0.10;0.10;;;;;;;12.64;62.55;102649.53;5061246;28;20124;-81
2023/05/17 03:16:40;;;;;;;0.10;0.10;;;;;;;12.59;62.90;102646.88;5065347;28;20083;-83
2023/05/17 03:19:06;;;;;;;0.10;0.10;;;;;;;12.56;62.88;102652.16;5065379;28;20111;-80
2023/05/17 03:21:32;;;;;;;0.10;0.10;;;;;;;12.58;62.64;102643.31;5069738;28;20381;-81
2023/05/17 03:23:58;;;;;;;0.10;0.10;;;;;;;12.49;62.91;102651.28;5073397;28;20089;-82
2023/05/17 03:26:26;;;;;;;0.20;0.20;;;;;;;12.46;63.15;102645.94;5072343;28;20402;-81
2023/05/17 03:28:52;;;;;;;0.08;0.08;;;;;;;12.44;63.15;102648.63;5074145;28;20450;-79
2023/05/17 03:31:18;;;;;;;0.10;0.10;;;;;;;12.45;62.78;102645.06;5059600;28;20064;-81
2023/05/17 03:33:44;;;;;;;0.20;0.20;;;;;;;12.48;63.20;102649.50;5072049;28;20119;-81
2023/05/17 03:36:11;;;;;;;0.10;0.10;;;;;;;12.56;63.25;102662.81;5067367;28;20048;-81
2023/05/17 03:38:37;;;;;;;1.30;0.52;;;;;;;12.62;63.53;102654.84;5073527;28;20509;-80
2023/05/17 03:41:03;;;;;;;0.10;0.10;;;;;;;12.67;63.34;102654.84;5072226;28;20031;-82
2023/05/17 03:43:30;;;;;;;0.10;0.10;;;;;;;12.74;62.44;102664.59;5073211;28;20020;-80
2023/05/17 03:45:56;;;;;;;0.10;0.10;;;;;;;12.78;62.96;102661.03;5072219;28;20043;-80
2023/05/17 03:48:22;;;;;;;0.00;0.00;;;;;;;12.81;63.25;102669.03;5059506;28;20112;-81
2023/05/17 03:50:48;;;;;;;0.10;0.10;;;;;;;12.84;63.45;102663.72;5077753;28;20032;-81
2023/05/17 03:53:14;;;;;;;0.55;0.55;;;;;;;12.88;63.10;102662.81;5074112;28;20049;-82
2023/05/17 03:55:40;;;;;;;0.10;0.10;;;;;;;12.92;63.35;102674.34;5080146;28;20027;-82
2023/05/17 03:58:07;;;;;;;0.10;0.10;;;;;;;12.94;62.96;102675.25;5083165;28;20031;-82
2023/05/17 04:00:33;;;;;;;0.10;0.10;;;;;;;12.97;62.99;102679.66;5085514;28;20024;-82
2023/05/17 04:02:59;;;;;;;1.65;1.55;;;;;;;12.97;63.10;102685.00;5077380;28;20028;-80
2023/05/17 04:05:25;;;;;;;0.10;0.10;;;;;;;12.99;62.41;102683.22;5063241;28;20017;-82
2023/05/17 04:07:52;;;;;;;0.63;0.63;;;;;;;12.98;62.55;102692.09;5075878;28;20508;-81
2023/05/17 04:10:18;;;;;;;0.05;0.05;;;;;;;12.95;62.08;102685.88;5071663;28;20079;-81
2023/05/17 04:12:44;;;;;;;0.08;0.08;;;;;;;12.92;62.33;102685.88;5073632;28;20032;-83
2023/05/17 04:15:10;;;;;;;0.00;0.00;;;;;;;12.88;61.82;102702.72;5072887;28;20024;-83
2023/05/17 04:17:37;;;;;;;0.00;0.00;;;;;;;12.83;62.22;102709.81;5071883;28;20028;-81
2023/05/17 04:20:05;;;;;;;0.10;0.10;;;;;;;12.81;61.93;102716.03;5069766;28;20028;-81
2023/05/17 04:22:31;;;;;;;0.10;0.10;;;;;;;12.76;61.74;102718.66;5063577;28;20424;-83
2023/05/17 04:24:58;;;;;;;0.10;0.10;;;;;;;12.72;61.74;102722.22;5069604;28;20512;-83
2023/05/17 04:27:24;;;;;;;0.00;0.00;;;;;;;12.68;61.78;102717.78;5075645;28;20039;-83
2023/05/17 04:29:50;;;;;;;0.10;0.10;;;;;;;12.64;61.62;102719.56;5069228;28;20616;-83
2023/05/17 04:32:17;;;;;;;0.10;0.10;;;;;;;12.62;61.65;102722.22;5062297;28;20494;-81
2023/05/17 04:34:43;;;;;;;0.08;0.08;;;;;;;12.56;61.12;102722.22;5073193;28;20474;-81
2023/05/17 04:37:09;;;;;;;0.00;0.00;;;;;;;12.52;61.64;102725.72;5072740;28;20058;-81
2023/05/17 04:39:36;;;;;;;0.00;0.00;;;;;;;12.48;61.58;102734.59;5068873;28;20021;-80
2023/05/17 04:42:02;;;;;;;0.10;0.10;;;;;;;12.48;61.26;102745.22;5071004;28;20108;-82
2023/05/17 04:44:29;;;;;;;0.00;0.00;;;;;;;12.45;61.66;102743.44;5077397;28;20056;-82
2023/05/17 04:46:55;;;;;;;0.50;0.50;;;;;;;12.42;61.54;102745.19;5072734;28;20046;-82
2023/05/17 04:49:21;;;;;;;0.10;0.10;;;;;;;12.41;61.20;102749.66;5068105;28;20066;-82
2023/05/17 04:51:47;;;;;;;0.10;0.10;;;;;;;12.40;60.87;102752.28;5071427;28;20469;-82
2023/05/17 04:54:13;;;;;;;0.10;0.10;;;;;;;12.39;61.42;102755.84;5073772;28;20036;-83
2023/05/17 04:56:39;;;;;;;0.05;0.05;;;;;;;12.40;60.90;102752.28;5064297;28;20036;-81
2023/05/17 04:59:06;;;;;;;0.10;0.10;;;;;;;12.37;61.11;102754.94;5075698;28;20025;-81
2023/05/17 05:01:34;;;;;;;0.10;0.10;;;;;;;12.38;61.25;102762.03;5070406;28;20035;-83
2023/05/17 05:04:05;;;;;;;0.10;0.10;;;;;;;12.38;61.49;102770.00;5065618;28;20029;-82
2023/05/17 05:06:32;;;;;;;0.10;0.10;;;;;;;12.37;61.37;102768.22;5064394;28;20033;-80
2023/05/17 05:08:59;;;;;;;0.10;0.10;;;;;;;12.38;60.90;102770.00;5073442;28;20047;-83
2023/05/17 05:11:25;;;;;;;0.10;0.10;;;;;;;12.40;60.65;102776.19;5071853;28;20025;-80
2023/05/17 05:13:51;;;;;;;0.10;0.10;;;;;;;12.41;60.96;102781.53;5059082;28;20037;-80
2023/05/17 05:16:17;;;;;;;0.10;0.10;;;;;;;12.43;61.20;102784.19;5063042;28;20039;-82
2023/05/17 05:18:43;;;;;;;0.10;0.10;;;;;;;12.47;61.25;102775.34;5068261;28;20639;-82
2023/05/17 05:21:09;;;;;;;0.00;0.00;;;;;;;12.50;60.68;102785.09;5062156;28;20028;-81
2023/05/17 05:23:35;;;;;;;2.97;2.85;;;;;;;12.56;60.46;102790.44;5074154;28;20041;-83
2023/05/17 05:26:02;;;;;;;0.10;0.10;;;;;;;12.56;60.67;102791.34;5068346;28;20036;-83
2023/05/17 05:28:29;;;;;;;0.10;0.10;;;;;;;12.60;60.51;102803.75;5063620;28;20066;-84
2023/05/17 05:31:00;;;;;;;0.10;0.10;;;;;;;12.64;60.18;102795.81;5066819;28;20119;-82
2023/05/17 05:33:26;;;;;;;0.00;0.00;;;;;;;12.62;59.99;102802.00;5065085;28;20024;-82
2023/05/17 05:35:52;;;;;;;0.47;0.47;;;;;;;12.64;59.94;102799.34;5064329;28;20041;-79
2023/05/17 05:38:19;;;;;;;0.00;0.00;;;;;;;12.68;60.17;102808.22;5047256;28;20024;-83
2023/05/17 05:40:47;;;;;;;0.10;0.10;;;;;;;12.70;59.81;102812.66;5055323;28;20522;-83
2023/05/17 05:43:13;;;;;;;0.10;0.10;;;;;;;12.72;60.13;102810.00;5046355;28;20052;-82
2023/05/17 05:45:44;;;;;;;0.08;0.08;;;;;;;12.77;60.10;102816.19;5042791;28;20037;-81
2023/05/17 05:48:11;;;;;;;0.10;0.10;;;;;;;12.72;60.30;102820.63;5042841;28;20171;-80
2023/05/17 05:50:38;;;;;;;0.00;0.00;;;;;;;12.81;59.87;102823.31;5059445;28;20029;-79
2023/05/17 05:53:05;;;;;;;0.08;0.08;;;;;;;12.85;60.22;102829.53;5052933;28;20036;-81
2023/05/17 05:55:31;;;;;;;0.10;0.10;;;;;;;12.86;59.67;102836.63;5056267;28;20047;-81
2023/05/17 05:57:57;;;;;;;0.10;0.10;;;;;;;12.89;59.70;102834.84;5069074;28;20112;-83
2023/05/17 06:00:23;;;;;;;0.10;0.10;;;;;;;12.89;59.63;102834.84;5065253;28;20068;-81
2023/05/17 06:02:50;;;;;;;0.10;0.10;;;;;;;12.91;59.71;102835.75;5058296;28;20484;-81
2023/05/17 06:05:16;;;;;;;0.08;0.08;;;;;;;12.93;59.39;102839.31;5059501;28;20025;-82
2023/05/17 06:07:42;;;;;;;0.00;0.00;;;;;;;12.95;59.28;102845.50;5058905;28;20052;-82
2023/05/17 06:10:09;;;;;;;0.05;0.05;;;;;;;12.96;59.43;102835.78;5057128;28;20491;-81
2023/05/17 06:12:35;;;;;;;0.10;0.10;;;;;;;12.99;59.21;102837.56;5058827;28;20481;-81
2023/05/17 06:15:01;;;;;;;0.05;0.05;;;;;;;13.00;59.22;102839.34;5071771;28;20035;-82
2023/05/17 06:17:27;;;;;;;0.10;0.10;;;;;;;13.03;59.04;102839.31;5053659;28;20021;-82
2023/05/17 06:19:53;;;;;;;0.10;0.10;;;;;;;13.08;58.94;102835.78;5065874;28;20037;-81
2023/05/17 06:22:20;;;;;;;0.10;0.10;;;;;;;13.12;59.29;102836.66;5065279;28;20059;-83
2023/05/17 06:24:52;;;;;;;0.20;0.20;;;;;;;13.12;59.17;102844.66;5070389;28;20058;-81
2023/05/17 06:27:18;;;;;;;0.10;0.10;;;;;;;13.18;58.62;102844.66;5068437;28;20052;-80
2023/05/17 06:29:45;;;;;;;0.10;0.10;;;;;;;13.22;58.70;102846.47;5066077;28;20025;-83
2023/05/17 06:32:11;;;;;;;0.80;0.80;;;;;;;13.25;58.50;102851.75;5062478;28;20029;-83
2023/05/17 06:34:38;;;;;;;0.20;0.20;;;;;;;13.31;58.45;102850.91;5058108;28;20025;-80
2023/05/17 06:37:05;;;;;;;1.33;0.35;;;;;;;13.37;58.59;102855.31;5063169;28;20021;-83
2023/05/17 06:39:31;;;;;;;0.08;0.08;;;;;;;13.37;57.94;102853.59;5067187;28;20118;-83
2023/05/17 06:41:57;;;;;;;0.10;0.10;;;;;;;13.41;57.56;102854.50;5058836;28;20090;-83
2023/05/17 06:44:23;;;;;;;0.10;0.10;;;;;;;13.43;57.39;102858.03;5056870;28;20036;-85
2023/05/17 06:46:50;;;;;;;0.10;0.10;;;;;;;13.46;57.81;102854.47;5049862;28;20455;-83
2023/05/17 06:49:16;;;;;;;0.10;0.10;;;;;;;13.48;57.44;102866.91;5051149;28;20029;-82
2023/05/17 06:51:42;;;;;;;0.10;0.10;;;;;;;13.50;57.34;102862.47;5055859;28;20594;-86
2023/05/17 06:54:08;;;;;;;0.10;0.10;;;;;;;13.50;57.08;102865.13;5054225;28;20025;-83
2023/05/17 06:56:34;;;;;;;0.05;0.05;;;;;;;13.53;56.88;102872.22;5066560;28;20025;-84
2023/05/17 06:59:01;;;;;;;0.28;0.28;;;;;;;13.50;56.68;102867.78;5057447;28;20052;-83
2023/05/17 07:01:27;;;;;;;0.17;0.17;;;;;;;13.59;57.06;102878.47;5060292;28;20045;-83
2023/05/17 07:03:53;;;;;;;0.10;0.10;;;;;;;13.64;56.46;102867.78;5062711;28;20033;-83
2023/05/17 07:06:19;;;;;;;0.10;0.10;;;;;;;13.70;56.90;102877.56;5050557;28;20075;-83
2023/05/17 07:08:45;;;;;;;0.10;0.10;;;;;;;13.78;56.34;102878.44;5058620;28;20052;-84
2023/05/17 07:11:11;;;;;;;0.10;0.10;;;;;;;13.80;56.83;102871.34;5055826;28;20115;-83
2023/05/17 07:13:37;;;;;;;0.10;0.10;;;;;;;13.87;56.54;102883.78;5060579;28;20495;-84
2023/05/17 07:16:05;;;;;;;0.10;0.10;;;;;;;13.94;56.68;102873.09;5069616;28;20107;-84
2023/05/17 07:18:32;;;;;;;0.00;0.00;;;;;;;14.00;56.10;102878.41;5054207;28;20060;-84
2023/05/17 07:20:58;;;;;;;0.00;0.00;;;;;;;13.99;55.74;102872.19;5055596;28;20390;-85
2023/05/17 07:23:24;;;;;;;0.10;0.10;;;;;;;13.98;55.04;102875.78;5062725;28;20036;-83
2023/05/17 07:25:50;;;;;;;0.10;0.10;;;;;;;14.01;55.19;102874.88;5062211;28;20062;-85
2023/05/17 07:28:16;;;;;;;0.10;0.10;;;;;;;13.98;54.53;102877.53;5072098;28;20027;-85
2023/05/17 07:30:42;;;;;;;0.10;0.10;;;;;;;14.00;53.91;102881.09;5067878;28;20119;-85
2023/05/17 07:33:09;;;;;;;0.00;0.00;;;;;;;14.01;53.43;102885.53;5067788;28;20028;-83
2023/05/17 07:35:35;;;;;;;0.40;0.40;;;;;;;14.08;53.59;102896.19;5068805;28;20043;-82
2023/05/17 07:38:01;;;;;;;0.00;0.00;;;;;;;14.10;53.59;102888.16;5065408;28;20426;-83
2023/05/17 07:40:34;;;;;;;0.10;0.10;;;;;;;14.11;53.64;102892.63;5071406;28;20040;-86
2023/05/17 07:43:00;;;;;;;0.10;0.10;;;;;;;14.14;53.43;102900.59;5071877;28;20402;-83
2023/05/17 07:45:27;;;;;;;0.10;0.10;;;;;;;14.17;53.04;102905.94;5071709;28;20055;-84
2023/05/17 07:47:53;;;;;;;0.10;0.10;;;;;;;14.21;53.46;102902.34;5068685;28;20575;-83
2023/05/17 07:50:19;;;;;;;0.00;0.00;;;;;;;14.21;52.74;102899.69;5070755;28;20028;-84
2023/05/17 07:52:45;;;;;;;0.10;0.10;;;;;;;14.24;53.03;102904.13;5064852;28;20084;-84
2023/05/17 07:55:11;;;;;;;0.13;0.13;;;;;;;14.33;52.97;102903.22;5056210;28;20036;-84
2023/05/17 07:57:37;;;;;;;0.10;0.10;;;;;;;14.37;52.23;102911.22;5055863;28;20017;-83
2023/05/17 08:00:05;;;;;;;0.10;0.10;;;;;;;14.44;52.31;102912.06;5070696;28;20047;-82
2023/05/17 08:02:31;;;;;;;0.80;0.80;;;;;;;14.49;52.18;102907.63;5055302;28;20029;-81
2023/05/17 08:04:57;;;;;;;0.10;0.10;;;;;;;14.55;52.19;102907.63;5069779;28;20043;-81
2023/05/17 08:07:23;;;;;;;0.10;0.10;;;;;;;14.59;52.01;102916.47;5061382;28;20029;-81
2023/05/17 08:09:49;;;;;;;0.10;0.10;;;;;;;14.66;52.02;102917.38;5049076;28;20049;-82
2023/05/17 08:12:16;;;;;;;0.10;0.10;;;;;;;14.68;51.60;102916.47;5056572;28;20040;-82
2023/05/17 08:14:42;;;;;;;0.10;0.10;;;;;;;14.75;50.78;102928.00;5058948;28;20055;-82
2023/05/17 08:17:08;;;;;;;0.10;0.10;;;;;;;14.81;50.90;102927.09;5052819;28;20044;-80
2023/05/17 08:19:34;;;;;;;0.10;0.10;;;;;;;14.86;50.44;102926.16;5060855;28;20040;-85
2023/05/17 08:22:01;;;;;;;0.10;0.10;;;;;;;14.92;50.57;102921.72;5062955;28;20031;-85
2023/05/17 08:24:27;;;;;;;0.10;0.10;;;;;;;14.96;50.18;102926.16;5060618;28;20115;-85
2023/05/17 08:26:53;;;;;;;0.10;0.10;;;;;;;15.03;50.24;102917.22;5060511;28;20040;-86
2023/05/17 08:29:19;;;;;;;0.10;0.10;;;;;;;15.07;49.73;102921.63;5067919;28;20031;-84
2023/05/17 08:31:45;;;;;;;0.10;0.10;;;;;;;15.12;49.59;102917.16;5064952;28;20112;-85
2023/05/17 08:34:11;;;;;;;0.10;0.10;;;;;;;15.18;49.78;102922.44;5059251;28;20024;-86
2023/05/17 08:36:38;;;;;;;0.10;0.10;;;;;;;15.28;49.30;102917.06;5054244;28;20017;-86
2023/05/17 08:39:04;;;;;;;0.10;0.10;;;;;;;15.32;49.00;102918.81;5070012;28;20089;-84
2023/05/17 08:41:31;;;;;;;0.10;0.10;;;;;;;15.32;49.36;102924.16;5060984;28;20507;-85
2023/05/17 08:43:58;;;;;;;0.10;0.10;;;;;;;15.26;49.27;102924.19;5071801;28;20037;-86
2023/05/17 08:46:25;;;;;;;0.30;0.30;;;;;;;15.16;49.30;102928.69;5058728;28;20036;-86
2023/05/17 08:48:58;;;;;;;0.00;0.00;;;;;;;15.15;49.24;102927.81;5052710;28;20032;-85
2023/05/17 08:51:25;;;;;;;0.10;0.10;;;;;;;15.22;48.89;102919.78;5052146;28;20089;-86
2023/05/17 08:53:55;;;;;;;0.10;0.10;;;;;;;15.30;48.97;102923.28;5052127;28;20041;-85
2023/05/17 08:56:24;;;;;;;0.10;0.10;;;;;;;15.39;48.44;102925.91;5051718;28;20047;-84
2023/05/17 08:58:55;;;;;;;0.05;0.05;;;;;;;15.47;47.79;102928.50;5052508;28;20652;-81
2023/05/17 09:01:23;;;;;;;0.10;0.10;;;;;;;15.52;47.47;102927.56;5064533;28;20033;-84
2023/05/17 09:03:49;;;;;;;0.10;0.10;;;;;;;15.59;47.69;102923.06;5058413;28;20021;-85
2023/05/17 09:06:21;;;;;;;0.10;0.10;;;;;;;15.68;47.31;102932.81;5067078;28;20048;-85
2023/05/17 09:08:51;;;;;;;0.55;0.55;;;;;;;15.70;46.46;102928.31;5057774;28;20557;-85
2023/05/17 09:11:31;;;;;;;0.10;0.10;;;;;;;15.82;46.99;102928.25;5058995;28;20032;-85
2023/05/17 09:14:03;;;;;;;0.10;0.10;;;;;;;15.88;46.61;102931.78;5056738;28;20036;-84
2023/05/17 09:16:32;;;;;;;0.10;0.10;;;;;;;15.94;46.93;102918.38;5058691;28;20502;-85
2023/05/17 09:19:00;;;;;;;0.10;0.10;;;;;;;16.03;46.31;102918.25;5055882;28;20032;-86
2023/05/17 09:21:28;;;;;;;0.10;0.10;;;;;;;16.11;46.52;102923.53;5054961;28;20021;-83
2023/05/17 09:23:55;;;;;;;0.10;0.10;;;;;;;16.21;46.47;102927.00;5043790;28;20033;-85
2023/05/17 09:26:21;;;;;;;0.17;0.17;;;;;;;16.28;45.88;102924.25;5058041;28;20065;-83
2023/05/17 09:28:47;;;;;;;0.10;0.10;;;;;;;16.36;44.52;102921.47;5069932;28;20115;-81
2023/05/17 09:31:16;;;;;;;0.10;0.10;;;;;;;16.46;45.53;102923.16;5055689;28;20021;-82
2023/05/17 09:33:46;;;;;;;0.10;0.10;;;;;;;16.56;45.12;102921.28;5054737;28;20024;-82
2023/05/17 09:36:21;;;;;;;0.10;0.10;;;;;;;16.71;45.58;102932.69;5056170;28;20055;-82
2023/05/17 09:39:05;;;;;;;0.10;0.10;;;;;;;16.76;44.06;102931.72;5054041;28;20051;-81
2023/05/17 09:41:32;;;;;;;0.10;0.10;;;;;;;16.73;44.48;102931.75;5054233;28;20025;-82
2023/05/17 09:44:01;;;;;;;0.00;0.00;;;;;;;16.74;44.34;102930.84;5060427;28;20032;-81
2023/05/17 09:46:33;;;;;;;0.10;0.10;;;;;;;16.74;44.00;102928.19;5050076;28;20108;-81
2023/05/17 09:49:01;;;;;;;0.25;0.25;;;;;;;16.81;43.67;102923.66;5057738;28;20063;-82
2023/05/17 09:51:38;;;;;;;0.00;0.00;;;;;;;16.93;44.07;102927.97;5060934;28;20090;-81
2023/05/17 09:54:06;;;;;;;0.32;0.30;;;;;;;16.97;43.69;102929.69;5060842;28;20036;-81
2023/05/17 09:56:33;;;;;;;0.10;0.10;;;;;;;17.06;43.78;102923.31;5067585;28;20081;-82
2023/05/17 09:59:02;;;;;;;0.10;0.10;;;;;;;17.18;43.81;102922.28;5061128;28;20474;-83
2023/05/17 10:01:30;;;;;;;0.10;0.10;;;;;;;17.24;43.67;102917.69;5047510;28;20056;-81
2023/05/17 10:04:01;;;;;;;0.10;0.10;;;;;;;17.30;42.98;102927.47;5057963;28;20406;-82
2023/05/17 10:06:29;;;;;;;0.60;0.60;;;;;;;17.36;43.13;102921.09;5049542;28;20025;-82
2023/05/17 10:08:57;;;;;;;0.10;0.10;;;;;;;17.44;42.49;102920.06;5058269;28;20025;-82
2023/05/17 10:11:32;;;;;;;0.10;0.10;;;;;;;17.53;42.62;102923.53;5074064;28;20101;-82
2023/05/17 10:14:27;;;;;;;0.10;0.10;;;;;;;17.62;41.93;102907.31;5070573;28;20040;-81
2023/05/17 10:16:55;;;;;;;0.20;0.20;;;;;;;17.61;42.52;102914.44;5084081;28;20043;-82
2023/05/17 10:19:22;;;;;;;0.10;0.10;;;;;;;17.69;42.45;102918.81;5056904;28;20075;-87
2023/05/17 10:21:50;;;;;;;0.05;0.05;;;;;;;17.76;42.21;102910.63;5071597;28;20060;-80
2023/05/17 10:24:16;;;;;;;0.10;0.10;;;;;;;17.83;42.33;102905.16;5068991;28;20039;-80
2023/05/17 10:26:43;;;;;;;0.10;0.10;;;;;;;17.90;42.43;102913.06;5058322;28;20033;-79
2023/05/17 10:29:09;;;;;;;0.10;0.10;;;;;;;17.97;42.24;102907.63;5062572;28;20036;-81
2023/05/17 10:31:35;;;;;;;0.30;0.30;;;;;;;18.03;41.47;102913.78;5057306;28;20021;-79
2023/05/17 10:34:04;;;;;;;0.15;0.15;;;;;;;18.05;41.16;102917.28;5069603;28;20044;-81
2023/05/17 10:36:31;;;;;;;0.10;0.10;;;;;;;18.01;41.82;102912.91;5059806;28;20017;-79
2023/05/17 10:38:58;;;;;;;0.10;0.10;;;;;;;18.06;42.11;102913.69;5054591;28;20128;-80
2023/05/17 10:41:31;;;;;;;0.10;0.10;;;;;;;18.15;41.63;102922.50;5063542;28;20170;-86
2023/05/17 10:43:57;;;;;;;;;;;;;;;18.21;41.30;102914.34;5066577;28;20026;-82
2023/05/17 10:46:23;;;;;;;0.10;0.10;;;;;;;18.14;41.50;102913.56;5072120;28;19921;-84
2023/05/17 10:48:51;;;;;;;0.10;0.10;;;;;;;18.14;40.97;102910.00;5061511;28;20028;-83
2023/05/17 10:51:30;;;;;;;0.10;0.10;;;;;;;18.27;40.85;102900.81;5070709;28;20028;-84
2023/05/17 10:54:17;;;;;;;0.20;0.20;;;;;;;18.35;40.57;102909.56;5069558;28;20148;-84
2023/05/17 10:56:52;;;;;;;0.00;0.00;;;;;;;18.34;39.90;102906.94;5054415;28;20021;-83
2023/05/17 10:59:22;;;;;;;0.25;0.25;;;;;;;18.34;40.23;102918.53;5071605;28;20035;-84
2023/05/17 11:04:42;;;;;;;0.80;0.80;;;;;;;18.42;39.95;102913.91;5114922;27;20367;-85
2023/05/17 11:07:30;;;;;;;0.25;0.25;;;;;;;18.55;39.64;102905.59;5113004;28;20460;-83
2023/05/17 11:12:45;;;;;;;0.10;0.10;;;;;;;18.61;39.15;102905.47;5092206;27;20436;-83
2023/05/17 11:15:14;;;;;;;0.22;0.22;;;;;;;18.69;39.78;102908.91;5086653;28;20050;-83
2023/05/17 11:17:49;;;;;;;0.10;0.10;;;;;;;18.74;39.56;102907.00;5076827;28;20043;-82
2023/05/17 11:20:36;;;;;;;0.10;0.10;;;;;;;18.83;39.42;102910.38;5082779;28;20029;-85
2023/05/17 11:23:05;;;;;;;0.15;0.15;;;;;;;18.84;39.56;102915.75;5075695;28;20545;-83
2023/05/17 11:28:19;;;;;;;2.28;1.88;;;;;;;19.00;38.97;102913.59;5068097;27;20130;-82
2023/05/17 11:30:50;;;;;;;0.10;0.10;;;;;;;19.04;38.61;102909.94;5052909;27;20033;-83
2023/05/17 11:33:17;;;;;;;0.30;0.30;;;;;;;19.13;38.82;102914.22;5050417;28;20681;-83
2023/05/17 11:35:44;;;;;;;0.20;0.20;;;;;;;19.30;38.62;102907.56;5051872;28;20101;-82
2023/05/17 11:40:55;;;;;;;0.10;0.10;;;;;;;19.39;38.53;102910.06;5069581;28;20411;-82
2023/05/17 11:43:22;;;;;;;0.20;0.20;;;;;;;19.44;39.13;102918.88;5057140;28;20199;-81
2023/05/17 11:45:51;;;;;;;0.10;0.10;;;;;;;19.52;38.59;102911.50;5048811;28;20091;-82